createdAt,value
2022-09-27T00:01:44.680Z,21.22
2022-09-27T00:04:12.792Z,21.42
2022-09-27T00:06:41.078Z,21.11
2022-09-27T00:09:09.492Z,21.37
2022-09-27T00:11:42.798Z,21.49
2022-09-27T00:14:12.645Z,21.17
2022-09-27T00:16:41.270Z,20.89
2022-09-27T00:19:12.467Z,20.69
2022-09-27T00:21:39.755Z,20.84
2022-09-27T00:24:06.609Z,20.82
2022-09-27T00:26:33.360Z,20.80
2022-09-27T00:29:00.219Z,21.05
2022-09-27T00:31:30.255Z,20.62
2022-09-27T00:34:01.149Z,21.03
2022-09-27T00:36:29.194Z,21.03
2022-09-27T00:38:59.819Z,21.02
2022-09-27T00:41:36.194Z,20.77
2022-09-27T00:44:25.076Z,20.85
2022-09-27T00:47:11.514Z,20.96
2022-09-27T00:49:41.322Z,20.82
2022-09-27T00:52:16.406Z,20.77
2022-09-27T00:54:46.231Z,21.01
2022-09-27T00:57:13.205Z,20.97
2022-09-27T00:59:46.453Z,21.00
2022-09-27T01:02:13.991Z,21.02
2022-09-27T01:04:42.454Z,21.09
2022-09-27T01:07:09.475Z,20.52
2022-09-27T01:09:36.443Z,20.77
2022-09-27T01:12:40.685Z,20.94
2022-09-27T01:15:34.900Z,20.93
2022-09-27T01:18:20.873Z,20.41
2022-09-27T01:21:25.519Z,20.34
2022-09-27T01:24:15.414Z,20.11
2022-09-27T01:26:45.711Z,20.29
2022-09-27T01:29:41.841Z,20.30
2022-09-27T01:32:15.576Z,20.53
2022-09-27T01:34:46.993Z,20.52
2022-09-27T01:37:31.316Z,20.45
2022-09-27T01:40:37.420Z,20.18
2022-09-27T01:43:32.960Z,20.53
2022-09-27T01:46:08.329Z,20.66
2022-09-27T01:49:10.971Z,20.56
2022-09-27T01:51:48.061Z,20.76
2022-09-27T01:54:23.957Z,20.27
2022-09-27T01:57:35.512Z,20.41
2022-09-27T02:00:09.806Z,20.45
2022-09-27T02:03:06.035Z,20.60
2022-09-27T02:05:43.110Z,20.70
2022-09-27T02:08:41.916Z,20.46
2022-09-27T02:11:21.005Z,19.92
2022-09-27T02:14:15.569Z,20.17
2022-09-27T02:16:55.159Z,20.47
2022-09-27T02:19:43.280Z,20.37
2022-09-27T02:22:31.448Z,19.70
2022-09-27T02:25:16.842Z,20.04
2022-09-27T02:27:57.936Z,20.14
2022-09-27T02:30:28.750Z,20.19
2022-09-27T02:33:06.071Z,20.25
2022-09-27T02:35:34.608Z,19.98
2022-09-27T02:38:03.283Z,20.43
2022-09-27T02:40:33.573Z,20.51
2022-09-27T02:43:03.692Z,20.55
2022-09-27T02:45:42.776Z,20.61
2022-09-27T02:48:16.024Z,20.56
2022-09-27T02:51:07.274Z,20.53
2022-09-27T02:54:11.756Z,20.66
2022-09-27T02:57:22.716Z,20.16
2022-09-27T03:00:19.761Z,20.37
2022-09-27T03:03:27.234Z,20.45
2022-09-27T03:06:08.155Z,20.45
2022-09-27T03:08:37.903Z,20.30
2022-09-27T03:11:05.849Z,20.40
2022-09-27T03:13:45.841Z,20.52
2022-09-27T03:16:22.381Z,20.38
2022-09-27T03:19:00.310Z,20.34
2022-09-27T03:21:45.670Z,20.62
2022-09-27T03:24:12.416Z,20.69
2022-09-27T03:26:39.910Z,20.57
2022-09-27T03:29:06.919Z,20.57
2022-09-27T03:31:34.195Z,20.15
2022-09-27T03:34:30.162Z,20.03
2022-09-27T03:36:57.263Z,20.23
2022-09-27T03:39:24.489Z,20.46
2022-09-27T03:41:51.422Z,20.55
2022-09-27T03:44:18.267Z,20.51
2022-09-27T03:46:45.247Z,20.09
2022-09-27T03:49:12.174Z,20.04
2022-09-27T03:51:39.054Z,20.06
2022-09-27T03:54:05.796Z,20.21
2022-09-27T03:56:33.266Z,20.02
2022-09-27T03:59:01.297Z,20.50
2022-09-27T04:01:35.192Z,20.15
2022-09-27T04:04:16.803Z,19.47
2022-09-27T04:06:43.733Z,19.77
2022-09-27T04:09:10.494Z,19.67
2022-09-27T04:11:57.696Z,19.77
2022-09-27T04:14:24.551Z,20.04
2022-09-27T04:17:14.162Z,20.17
2022-09-27T04:20:12.735Z,20.36
2022-09-27T04:22:45.521Z,20.43
2022-09-27T04:25:12.559Z,20.28
2022-09-27T04:27:45.715Z,20.33
2022-09-27T04:30:13.235Z,20.14
2022-09-27T04:32:57.957Z,20.24
2022-09-27T04:36:01.981Z,20.61
2022-09-27T04:38:29.444Z,20.31
2022-09-27T04:40:56.656Z,20.24
2022-09-27T04:43:24.548Z,20.43
2022-09-27T04:45:51.825Z,20.65
2022-09-27T04:48:18.872Z,20.64
2022-09-27T04:50:47.820Z,20.86
2022-09-27T04:53:15.719Z,20.77
2022-09-27T04:55:47.426Z,20.95
2022-09-27T04:58:14.436Z,20.71
2022-09-27T05:00:43.176Z,19.97
2022-09-27T05:03:37.595Z,20.48
2022-09-27T05:06:12.733Z,20.61
2022-09-27T05:08:39.792Z,20.73
2022-09-27T05:11:26.876Z,20.94
2022-09-27T05:14:14.189Z,20.86
2022-09-27T05:17:04.427Z,20.64
2022-09-27T05:19:34.921Z,20.72
2022-09-27T05:22:02.095Z,20.73
2022-09-27T05:24:29.312Z,20.68
2022-09-27T05:26:56.119Z,20.76
2022-09-27T05:29:23.176Z,20.99
2022-09-27T05:32:04.569Z,20.85
2022-09-27T05:34:32.684Z,20.90
2022-09-27T05:37:00.738Z,20.80
2022-09-27T05:39:30.442Z,20.94
2022-09-27T05:41:57.649Z,20.92
2022-09-27T05:44:26.043Z,20.97
2022-09-27T05:47:03.313Z,21.06
2022-09-27T05:49:32.039Z,20.85
2022-09-27T05:51:59.523Z,21.05
2022-09-27T05:54:29.679Z,20.75
2022-09-27T05:56:59.239Z,21.13
2022-09-27T05:59:55.566Z,21.25
2022-09-27T06:02:22.581Z,21.23
2022-09-27T06:05:26.715Z,20.90
2022-09-27T06:08:13.043Z,21.11
2022-09-27T06:10:48.043Z,21.18
2022-09-27T06:13:18.925Z,21.13
2022-09-27T06:15:47.294Z,21.07
2022-09-27T06:18:18.853Z,21.10
2022-09-27T06:20:48.699Z,21.15
2022-09-27T06:23:18.995Z,20.84
2022-09-27T06:25:48.752Z,20.86
2022-09-27T06:28:21.531Z,20.80
2022-09-27T06:30:52.668Z,20.94
2022-09-27T06:33:26.746Z,20.80
2022-09-27T06:35:55.119Z,20.70
2022-09-27T06:38:23.978Z,20.66
2022-09-27T06:41:20.062Z,20.78
2022-09-27T06:44:11.333Z,20.94
2022-09-27T06:46:56.955Z,20.63
2022-09-27T06:49:30.960Z,20.41
2022-09-27T06:51:59.785Z,20.93
2022-09-27T06:54:26.496Z,20.88
2022-09-27T06:56:53.155Z,21.01
2022-09-27T06:59:38.542Z,21.03
2022-09-27T07:02:27.894Z,20.78
2022-09-27T07:05:00.992Z,20.83
2022-09-27T07:07:47.899Z,21.06
2022-09-27T07:10:18.359Z,21.14
2022-09-27T07:12:48.646Z,21.21
2022-09-27T07:15:16.514Z,21.17
2022-09-27T07:17:44.263Z,21.22
2022-09-27T07:20:11.753Z,21.45
2022-09-27T07:22:45.864Z,21.41
2022-09-27T07:25:14.568Z,21.18
2022-09-27T07:27:44.119Z,21.25
2022-09-27T07:30:12.270Z,21.41
2022-09-27T07:32:38.939Z,21.49
2022-09-27T07:35:09.713Z,21.49
2022-09-27T07:37:38.144Z,21.44
2022-09-27T07:40:09.282Z,21.31
2022-09-27T07:42:41.746Z,21.40
2022-09-27T07:45:09.776Z,21.24
2022-09-27T07:47:55.054Z,21.48
2022-09-27T07:50:44.180Z,21.07
2022-09-27T07:53:31.274Z,21.34
2022-09-27T07:56:18.093Z,20.74
2022-09-27T07:58:47.007Z,21.05
2022-09-27T08:01:14.223Z,21.17
2022-09-27T08:03:41.242Z,21.46
2022-09-27T08:06:08.562Z,21.32
2022-09-27T08:08:35.584Z,21.19
2022-09-27T08:11:14.605Z,20.74
2022-09-27T08:13:42.947Z,21.08
2022-09-27T08:16:11.285Z,20.69
2022-09-27T08:18:56.444Z,20.98
2022-09-27T08:21:43.803Z,21.30
2022-09-27T08:24:28.562Z,21.17
2022-09-27T08:27:21.351Z,21.33
2022-09-27T08:29:53.221Z,21.34
2022-09-27T08:32:23.235Z,20.84
2022-09-27T08:34:51.217Z,21.18
2022-09-27T08:37:20.695Z,21.54
2022-09-27T08:39:48.672Z,21.35
2022-09-27T08:42:52.829Z,21.55
2022-09-27T08:45:29.725Z,21.86
2022-09-27T08:48:02.998Z,21.92
2022-09-27T08:50:42.620Z,21.88
2022-09-27T08:53:15.401Z,21.96
2022-09-27T08:55:48.116Z,21.80
2022-09-27T08:58:29.972Z,22.02
2022-09-27T09:01:00.711Z,22.04
2022-09-27T09:03:35.407Z,21.90
2022-09-27T09:06:17.143Z,21.89
2022-09-27T09:09:05.828Z,22.11
2022-09-27T09:12:15.208Z,21.83
2022-09-27T09:15:03.975Z,22.00
2022-09-27T09:17:33.814Z,22.35
2022-09-27T09:20:44.769Z,22.38
2022-09-27T09:23:40.335Z,22.22
2022-09-27T09:26:13.321Z,22.07
2022-09-27T09:28:46.995Z,22.24
2022-09-27T09:31:29.095Z,22.40
2022-09-27T09:34:14.423Z,22.58
2022-09-27T09:37:04.636Z,22.69
2022-09-27T09:39:52.765Z,22.50
2022-09-27T09:42:40.683Z,22.82
2022-09-27T09:45:13.355Z,22.91
2022-09-27T09:48:01.958Z,22.71
2022-09-27T09:50:35.199Z,23.01
2022-09-27T09:53:27.672Z,22.90
2022-09-27T09:56:07.835Z,23.11
2022-09-27T09:59:02.588Z,23.21
2022-09-27T10:01:43.807Z,23.20
2022-09-27T10:04:33.966Z,23.08
2022-09-27T10:07:02.604Z,23.11
2022-09-27T10:09:33.904Z,23.04
2022-09-27T10:12:36.809Z,22.83
2022-09-27T10:15:06.635Z,23.03
2022-09-27T10:17:40.077Z,22.46
2022-09-27T10:20:42.429Z,22.48
2022-09-27T10:23:22.532Z,22.95
2022-09-27T10:26:11.201Z,22.95
2022-09-27T10:28:47.556Z,23.02
2022-09-27T10:31:21.105Z,22.98
2022-09-27T10:34:05.745Z,23.08
2022-09-27T10:36:44.173Z,23.31
2022-09-27T10:39:35.828Z,23.44
2022-09-27T10:42:30.628Z,23.54
2022-09-27T10:44:57.661Z,23.68
2022-09-27T10:47:32.856Z,23.54
2022-09-27T10:50:49.048Z,22.66
2022-09-27T10:53:22.753Z,23.46
2022-09-27T10:55:59.337Z,23.42
2022-09-27T10:58:31.142Z,23.77
2022-09-27T11:01:04.536Z,23.47
2022-09-27T11:03:52.060Z,23.48
2022-09-27T11:06:37.698Z,23.46
2022-09-27T11:09:27.046Z,23.49
2022-09-27T11:12:14.756Z,22.92
2022-09-27T11:14:51.700Z,23.19
2022-09-27T11:17:27.452Z,22.73
2022-09-27T11:20:28.771Z,23.54
2022-09-27T11:23:23.334Z,23.72
2022-09-27T11:26:17.798Z,23.75
2022-09-27T11:28:50.807Z,23.82
2022-09-27T11:32:07.708Z,23.76
2022-09-27T11:34:54.747Z,24.06
2022-09-27T11:38:07.248Z,24.04
2022-09-27T11:41:03.253Z,24.65
2022-09-27T11:43:46.272Z,24.67
2022-09-27T11:46:41.728Z,24.83
2022-09-27T11:49:11.164Z,24.70
2022-09-27T11:51:58.257Z,24.43
2022-09-27T11:54:48.625Z,24.67
2022-09-27T11:57:23.138Z,24.92
2022-09-27T11:59:56.229Z,25.32
2022-09-27T12:02:22.997Z,25.15
2022-09-27T12:05:14.225Z,25.54
2022-09-27T12:08:04.183Z,25.47
2022-09-27T12:10:31.848Z,25.12
2022-09-27T12:12:59.326Z,25.74
2022-09-27T12:15:36.161Z,26.57
2022-09-27T12:18:13.246Z,26.40
2022-09-27T12:20:42.267Z,26.46
2022-09-27T12:23:25.087Z,26.70
2022-09-27T12:26:35.087Z,27.17
2022-09-27T12:29:14.577Z,27.85
2022-09-27T12:31:47.314Z,28.00
2022-09-27T12:34:19.835Z,27.53
2022-09-27T12:37:12.487Z,28.22
2022-09-27T12:39:49.204Z,28.35
2022-09-27T12:42:33.540Z,28.13
2022-09-27T12:45:10.670Z,28.08
2022-09-27T12:47:50.387Z,28.24
2022-09-27T12:50:44.583Z,28.93
2022-09-27T12:53:23.062Z,28.52
2022-09-27T12:56:10.704Z,29.20
2022-09-27T12:58:55.479Z,29.61
2022-09-27T13:02:08.571Z,29.61
2022-09-27T13:05:29.640Z,29.42
2022-09-27T13:08:54.615Z,29.69
2022-09-27T13:11:36.947Z,30.17
2022-09-27T13:14:05.538Z,30.54
2022-09-27T13:16:46.547Z,29.66
2022-09-27T13:19:34.293Z,31.06
2022-09-27T13:22:04.906Z,31.54
2022-09-27T13:25:55.366Z,31.36
2022-09-27T13:28:52.343Z,31.71
2022-09-27T13:31:59.323Z,32.34
2022-09-27T13:34:53.831Z,33.32
2022-09-27T13:37:28.826Z,33.80
2022-09-27T13:40:15.250Z,33.94
2022-09-27T13:43:11.285Z,34.56
2022-09-27T13:46:00.181Z,33.85
2022-09-27T13:48:57.184Z,33.11
2022-09-27T13:51:42.019Z,32.97
2022-09-27T13:54:33.823Z,33.32
2022-09-27T13:57:02.800Z,34.09
2022-09-27T13:59:44.099Z,34.23
2022-09-27T14:02:42.269Z,33.16
2022-09-27T14:05:20.474Z,33.10
2022-09-27T14:07:50.543Z,32.55
2022-09-27T14:10:24.271Z,33.31
2022-09-27T14:12:53.364Z,34.00
2022-09-27T14:15:27.382Z,33.54
2022-09-27T14:17:56.004Z,33.89
2022-09-27T14:20:32.989Z,32.13
2022-09-27T14:23:03.507Z,30.34
2022-09-27T14:25:39.866Z,30.15
2022-09-27T14:28:29.200Z,29.73
2022-09-27T14:31:14.900Z,30.02
2022-09-27T14:34:15.452Z,29.45
2022-09-27T14:37:07.177Z,29.32
2022-09-27T14:39:45.412Z,29.34
2022-09-27T14:42:32.480Z,29.15
2022-09-27T14:45:05.121Z,29.05
2022-09-27T14:47:32.786Z,27.95
2022-09-27T14:50:17.769Z,27.58
2022-09-27T14:52:45.064Z,27.88
2022-09-27T14:55:20.923Z,27.62
2022-09-27T14:57:52.636Z,27.35
2022-09-27T15:00:23.300Z,27.70
2022-09-27T15:02:55.037Z,27.67
2022-09-27T15:05:25.523Z,27.42
2022-09-27T15:07:55.799Z,27.38
2022-09-27T15:10:27.784Z,27.23
2022-09-27T15:12:59.884Z,27.54
2022-09-27T15:15:35.759Z,26.23
2022-09-27T15:18:23.710Z,24.59
2022-09-27T15:20:54.695Z,22.97
2022-09-27T15:23:36.613Z,22.14
2022-09-27T15:26:03.543Z,22.67
2022-09-27T15:28:30.467Z,23.12
2022-09-27T15:30:58.645Z,22.56
2022-09-27T15:33:34.970Z,22.80
2022-09-27T15:36:05.982Z,22.89
2022-09-27T15:38:48.703Z,22.56
2022-09-27T15:41:17.776Z,23.01
2022-09-27T15:43:52.751Z,21.80
2022-09-27T15:46:22.585Z,22.27
2022-09-27T15:49:22.948Z,23.13
2022-09-27T15:51:52.444Z,23.08
2022-09-27T15:54:30.837Z,22.25
2022-09-27T15:57:04.400Z,22.56
2022-09-27T15:59:36.321Z,22.87
2022-09-27T16:02:12.679Z,21.89
2022-09-27T16:04:39.771Z,21.58
2022-09-27T16:07:09.056Z,21.41
2022-09-27T16:09:36.388Z,21.47
2022-09-27T16:12:03.119Z,21.11
2022-09-27T16:14:29.806Z,21.10
2022-09-27T16:17:02.182Z,21.17
2022-09-27T16:19:28.987Z,20.87
2022-09-27T16:21:55.873Z,20.38
2022-09-27T16:24:23.905Z,20.58
2022-09-27T16:26:50.885Z,20.77
2022-09-27T16:29:17.818Z,21.40
2022-09-27T16:31:45.774Z,22.11
2022-09-27T16:34:13.442Z,22.28
2022-09-27T16:36:40.715Z,22.22
2022-09-27T16:39:12.799Z,21.89
2022-09-27T16:41:41.454Z,20.58
2022-09-27T16:44:13.010Z,21.12
2022-09-27T16:46:41.967Z,21.70
2022-09-27T16:49:28.306Z,21.84
2022-09-27T16:52:01.477Z,22.43
2022-09-27T16:54:30.009Z,22.77
2022-09-27T16:56:58.948Z,22.76
2022-09-27T16:59:26.080Z,22.62
2022-09-27T17:01:57.567Z,22.30
2022-09-27T17:04:26.432Z,22.20
2022-09-27T17:06:56.988Z,22.06
2022-09-27T17:09:24.589Z,22.58
2022-09-27T17:11:51.778Z,22.68
2022-09-27T17:14:19.000Z,22.73
2022-09-27T17:16:49.743Z,22.80
2022-09-27T17:19:18.485Z,22.73
2022-09-27T17:21:46.353Z,22.43
2022-09-27T17:24:13.563Z,22.71
2022-09-27T17:26:40.893Z,22.74
2022-09-27T17:29:09.817Z,22.78
2022-09-27T17:31:39.928Z,22.92
2022-09-27T17:34:12.534Z,22.83
2022-09-27T17:36:48.105Z,22.94
2022-09-27T17:39:21.324Z,22.51
2022-09-27T17:41:49.822Z,22.27
2022-09-27T17:44:21.635Z,22.28
2022-09-27T17:47:09.370Z,22.41
2022-09-27T17:49:55.159Z,22.53
2022-09-27T17:52:25.689Z,22.71
2022-09-27T17:54:55.664Z,22.74
2022-09-27T17:57:22.450Z,22.70
2022-09-27T17:59:49.471Z,22.70
2022-09-27T18:02:16.378Z,22.34
2022-09-27T18:04:43.272Z,22.08
2022-09-27T18:07:12.291Z,22.31
2022-09-27T18:09:39.396Z,21.94
2022-09-27T18:12:06.224Z,21.99
2022-09-27T18:14:33.797Z,22.22
2022-09-27T18:17:00.892Z,21.96
2022-09-27T18:19:27.865Z,22.22
2022-09-27T18:21:54.794Z,21.98
2022-09-27T18:24:21.717Z,22.17
2022-09-27T18:26:49.092Z,22.26
2022-09-27T18:29:20.856Z,22.05
2022-09-27T18:31:49.134Z,22.12
2022-09-27T18:34:18.147Z,22.21
2022-09-27T18:36:45.617Z,22.08
2022-09-27T18:39:15.828Z,21.91
2022-09-27T18:41:43.301Z,21.93
2022-09-27T18:44:12.540Z,21.70
2022-09-27T18:46:39.924Z,21.70
2022-09-27T18:49:10.731Z,21.30
2022-09-27T18:51:44.845Z,21.62
2022-09-27T18:54:19.193Z,21.61
2022-09-27T18:56:48.348Z,21.48
2022-09-27T18:59:16.517Z,21.12
2022-09-27T19:01:47.754Z,21.23
2022-09-27T19:04:21.562Z,21.42
2022-09-27T19:06:53.409Z,21.37
2022-09-27T19:09:20.247Z,21.25
2022-09-27T19:11:49.552Z,21.30
2022-09-27T19:14:19.724Z,21.13
2022-09-27T19:16:47.989Z,21.05
2022-09-27T19:19:18.921Z,21.18
2022-09-27T19:21:46.839Z,21.28
2022-09-27T19:24:15.563Z,21.38
2022-09-27T19:26:44.072Z,21.20
2022-09-27T19:29:13.043Z,21.34
2022-09-27T19:31:41.337Z,21.30
2022-09-27T19:34:08.235Z,21.14
2022-09-27T19:36:35.159Z,20.63
2022-09-27T19:39:03.730Z,21.07
2022-09-27T19:41:30.485Z,20.82
2022-09-27T19:43:57.801Z,20.72
2022-09-27T19:46:26.079Z,21.07
2022-09-27T19:48:55.169Z,21.18
2022-09-27T19:51:26.061Z,21.20
2022-09-27T19:53:55.031Z,21.35
2022-09-27T19:56:24.742Z,21.30
2022-09-27T19:58:51.920Z,21.42
2022-09-27T20:01:20.564Z,21.39
2022-09-27T20:03:51.134Z,21.13
2022-09-27T20:06:20.772Z,19.89
2022-09-27T20:08:48.436Z,20.40
2022-09-27T20:11:20.199Z,20.60
2022-09-27T20:13:50.589Z,20.43
2022-09-27T20:16:19.684Z,20.46
2022-09-27T20:18:51.068Z,20.52
2022-09-27T20:21:19.114Z,20.68
2022-09-27T20:23:49.357Z,21.02
2022-09-27T20:26:17.498Z,20.82
2022-09-27T20:28:50.298Z,21.02
2022-09-27T20:31:19.928Z,21.00
2022-09-27T20:33:49.747Z,20.88
2022-09-27T20:36:38.049Z,20.96
2022-09-27T20:39:06.992Z,20.95
2022-09-27T20:41:36.940Z,21.06
2022-09-27T20:44:07.097Z,20.89
2022-09-27T20:46:35.473Z,21.09
2022-09-27T20:49:05.296Z,20.83
2022-09-27T20:51:33.424Z,20.68
2022-09-27T20:54:01.291Z,20.78
2022-09-27T20:56:31.471Z,20.77
2022-09-27T20:59:01.000Z,20.75
2022-09-27T21:01:29.400Z,20.63
2022-09-27T21:03:58.539Z,20.70
2022-09-27T21:06:27.153Z,20.88
2022-09-27T21:08:54.718Z,20.71
2022-09-27T21:11:22.808Z,20.72
2022-09-27T21:13:51.483Z,20.73
2022-09-27T21:16:23.960Z,20.85
2022-09-27T21:18:55.539Z,20.86
2022-09-27T21:21:24.122Z,20.29
2022-09-27T21:23:56.209Z,20.61
2022-09-27T21:26:24.381Z,20.58
2022-09-27T21:28:54.153Z,20.58
2022-09-27T21:31:23.863Z,20.70
2022-09-27T21:33:55.732Z,20.61
2022-09-27T21:36:23.676Z,20.54
2022-09-27T21:38:51.000Z,20.63
2022-09-27T21:41:18.199Z,20.49
2022-09-27T21:43:46.947Z,20.63
2022-09-27T21:46:16.532Z,20.44
2022-09-27T21:48:46.557Z,20.48
2022-09-27T21:51:17.494Z,20.54
2022-09-27T21:53:50.538Z,20.48
2022-09-27T21:56:20.608Z,20.33
2022-09-27T21:58:47.857Z,20.27
2022-09-27T22:01:18.406Z,20.13
2022-09-27T22:03:46.567Z,20.13
2022-09-27T22:06:19.544Z,20.29
2022-09-27T22:08:48.020Z,20.36
2022-09-27T22:11:24.536Z,20.51
2022-09-27T22:13:51.695Z,20.41
2022-09-27T22:16:20.362Z,20.44
2022-09-27T22:18:51.909Z,20.43
2022-09-27T22:21:26.427Z,20.19
2022-09-27T22:24:07.173Z,20.21
2022-09-27T22:26:37.348Z,20.30
2022-09-27T22:29:05.329Z,20.20
2022-09-27T22:31:33.134Z,20.08
2022-09-27T22:34:03.457Z,19.59
2022-09-27T22:36:32.409Z,19.97
2022-09-27T22:38:59.729Z,19.89
2022-09-27T22:41:26.592Z,20.08
2022-09-27T22:43:56.315Z,19.94
2022-09-27T22:46:23.071Z,19.98
2022-09-27T22:48:50.241Z,19.90
2022-09-27T22:51:17.489Z,19.80
2022-09-27T22:53:44.447Z,19.83
2022-09-27T22:56:16.360Z,19.93
2022-09-27T22:58:44.216Z,19.62
2022-09-27T23:01:23.090Z,19.62
2022-09-27T23:03:52.584Z,19.69
2022-09-27T23:06:21.186Z,19.25
2022-09-27T23:08:48.662Z,19.10
2022-09-27T23:11:17.888Z,19.17
2022-09-27T23:13:45.706Z,18.59
2022-09-27T23:16:14.966Z,18.94
2022-09-27T23:18:42.453Z,19.19
2022-09-27T23:21:11.151Z,18.59
2022-09-27T23:23:42.764Z,18.83
2022-09-27T23:26:13.426Z,19.09
2022-09-27T23:28:40.744Z,18.60
2022-09-27T23:31:13.804Z,18.06
2022-09-27T23:33:43.588Z,18.33
2022-09-27T23:36:15.212Z,18.33
2022-09-27T23:38:43.497Z,18.44
2022-09-27T23:41:13.711Z,18.52
2022-09-27T23:43:40.569Z,18.11
2022-09-27T23:46:08.785Z,18.59
2022-09-27T23:48:36.701Z,17.51
2022-09-27T23:51:05.911Z,17.54
2022-09-27T23:53:33.172Z,18.30
2022-09-27T23:56:02.761Z,18.61
2022-09-27T23:58:37.478Z,17.94
